sensor_id;sensor_type;location;lat;lon;timestamp;pressure;altitude;pressure_sealevel;temperature;humidity
50093;BME280;35974;47.752;10.290;2023-04-15T00:00:34;92865.56;;;0.09;100.00
50093;BME280;35974;47.752;10.290;2023-04-15T00:03:02;92875.56;;;0.04;100.00
50093;BME280;35974;47.752;10.290;2023-04-15T00:05:29;92864.28;;;0.05;100.00
50093;BME280;35974;47.752;10.290;2023-04-15T00:07:56;92869.25;;;0.14;100.00
50093;BME280;35974;47.752;10.290;2023-04-15T00:10:24;92868.44;;;0.14;100.00
50093;BME280;35974;47.752;10.290;2023-04-15T00:12:50;92860.69;;;0.22;100.00
50093;BME280;35974;47.752;10.290;2023-04-15T00:15:17;92870.66;;;0.25;100.00
50093;BME280;35974;47.752;10.290;2023-04-15T00:17:43;92867.78;;;0.20;100.00
50093;BME280;35974;47.752;10.290;2023-04-15T00:20:12;92870.34;;;0.28;100.00
50093;BME280;35974;47.752;10.290;2023-04-15T00:22:39;92863.91;;;0.24;100.00
50093;BME280;35974;47.752;10.290;2023-04-15T00:25:05;92867.47;;;0.23;100.00
50093;BME280;35974;47.752;10.290;2023-04-15T00:27:32;92873.38;;;0.32;100.00
50093;BME280;35974;47.752;10.290;2023-04-15T00:32:30;92866.13;;;0.35;100.00
50093;BME280;35974;47.752;10.290;2023-04-15T00:34:56;92860.50;;;0.32;100.00
50093;BME280;35974;47.752;10.290;2023-04-15T00:37:23;92863.50;;;0.44;100.00
50093;BME280;35974;47.752;10.290;2023-04-15T00:39:49;92860.91;;;0.52;100.00
50093;BME280;35974;47.752;10.290;2023-04-15T00:42:16;92861.59;;;0.46;100.00
50093;BME280;35974;47.752;10.290;2023-04-15T00:44:43;92862.19;;;0.56;100.00
50093;BME280;35974;47.752;10.290;2023-04-15T00:47:09;92861.22;;;0.57;100.00
50093;BME280;35974;47.752;10.290;2023-04-15T00:49:36;92853.84;;;0.54;100.00
50093;BME280;35974;47.752;10.290;2023-04-15T00:52:02;92855.09;;;0.58;100.00
50093;BME280;35974;47.752;10.290;2023-04-15T00:54:29;92846.41;;;0.59;100.00
50093;BME280;35974;47.752;10.290;2023-04-15T00:56:55;92854.88;;;0.68;100.00
50093;BME280;35974;47.752;10.290;2023-04-15T00:59:23;92848.03;;;0.60;100.00
50093;BME280;35974;47.752;10.290;2023-04-15T01:01:49;92851.88;;;0.56;100.00
50093;BME280;35974;47.752;10.290;2023-04-15T01:04:17;92853.16;;;0.60;100.00
50093;BME280;35974;47.752;10.290;2023-04-15T01:06:43;92850.59;;;0.60;100.00
50093;BME280;35974;47.752;10.290;2023-04-15T01:11:46;92849.03;;;0.51;100.00
50093;BME280;35974;47.752;10.290;2023-04-15T01:14:12;92854.84;;;0.45;100.00
50093;BME280;35974;47.752;10.290;2023-04-15T01:16:39;92849.09;;;0.34;100.00
50093;BME280;35974;47.752;10.290;2023-04-15T01:19:07;92852.94;;;0.30;100.00
50093;BME280;35974;47.752;10.290;2023-04-15T01:21:36;92856.22;;;0.16;100.00
50093;BME280;35974;47.752;10.290;2023-04-15T01:24:07;92857.16;;;0.23;100.00
50093;BME280;35974;47.752;10.290;2023-04-15T01:26:34;92865.38;;;0.18;100.00
50093;BME280;35974;47.752;10.290;2023-04-15T01:29:01;92860.34;;;0.33;100.00
50093;BME280;35974;47.752;10.290;2023-04-15T01:31:27;92862.03;;;0.10;100.00
50093;BME280;35974;47.752;10.290;2023-04-15T01:34:07;92868.81;;;-0.06;100.00
50093;BME280;35974;47.752;10.290;2023-04-15T01:36:34;92866.25;;;-0.14;100.00
50093;BME280;35974;47.752;10.290;2023-04-15T01:39:01;92864.34;;;-0.28;100.00
50093;BME280;35974;47.752;10.290;2023-04-15T01:41:29;92856.00;;;-0.30;100.00
50093;BME280;35974;47.752;10.290;2023-04-15T01:43:55;92857.59;;;-0.29;100.00
50093;BME280;35974;47.752;10.290;2023-04-15T01:46:21;92852.81;;;-0.32;100.00
50093;BME280;35974;47.752;10.290;2023-04-15T01:48:48;92850.72;;;-0.37;100.00
50093;BME280;35974;47.752;10.290;2023-04-15T01:51:14;92850.88;;;-0.39;100.00
50093;BME280;35974;47.752;10.290;2023-04-15T01:53:41;92852.47;;;-0.46;100.00
50093;BME280;35974;47.752;10.290;2023-04-15T01:56:07;92849.75;;;-0.44;100.00
50093;BME280;35974;47.752;10.290;2023-04-15T01:58:44;92853.13;;;-0.44;100.00
50093;BME280;35974;47.752;10.290;2023-04-15T02:01:11;92846.06;;;-0.58;100.00
50093;BME280;35974;47.752;10.290;2023-04-15T02:03:38;92850.22;;;-0.65;100.00
50093;BME280;35974;47.752;10.290;2023-04-15T02:06:04;92858.25;;;-0.68;100.00
50093;BME280;35974;47.752;10.290;2023-04-15T02:08:31;92855.84;;;-0.70;100.00
50093;BME280;35974;47.752;10.290;2023-04-15T02:10:57;92850.41;;;-0.67;100.00
50093;BME280;35974;47.752;10.290;2023-04-15T02:13:24;92850.56;;;-0.77;100.00
50093;BME280;35974;47.752;10.290;2023-04-15T02:15:50;92852.81;;;-0.82;100.00
50093;BME280;35974;47.752;10.290;2023-04-15T02:18:17;92846.03;;;-0.99;100.00
50093;BME280;35974;47.752;10.290;2023-04-15T02:20:44;92851.53;;;-1.02;100.00
50093;BME280;35974;47.752;10.290;2023-04-15T02:23:10;92850.69;;;-1.03;100.00
50093;BME280;35974;47.752;10.290;2023-04-15T02:25:37;92847.97;;;-1.01;100.00
50093;BME280;35974;47.752;10.290;2023-04-15T02:28:06;92850.53;;;-0.93;100.00
50093;BME280;35974;47.752;10.290;2023-04-15T02:30:32;92856.66;;;-1.02;100.00
50093;BME280;35974;47.752;10.290;2023-04-15T02:32:59;92855.69;;;-0.93;100.00
50093;BME280;35974;47.752;10.290;2023-04-15T02:35:26;92857.75;;;-1.05;100.00
50093;BME280;35974;47.752;10.290;2023-04-15T02:37:52;92854.38;;;-1.14;100.00
50093;BME280;35974;47.752;10.290;2023-04-15T02:40:19;92852.47;;;-1.12;100.00
50093;BME280;35974;47.752;10.290;2023-04-15T02:42:45;92852.78;;;-1.15;100.00
50093;BME280;35974;47.752;10.290;2023-04-15T02:45:11;92850.19;;;-1.23;100.00
50093;BME280;35974;47.752;10.290;2023-04-15T02:47:38;92855.63;;;-1.26;100.00
50093;BME280;35974;47.752;10.290;2023-04-15T02:50:07;92855.97;;;-1.13;100.00
50093;BME280;35974;47.752;10.290;2023-04-15T02:52:46;92849.88;;;-1.20;100.00
50093;BME280;35974;47.752;10.290;2023-04-15T02:55:13;92848.25;;;-1.21;100.00
50093;BME280;35974;47.752;10.290;2023-04-15T02:57:39;92848.88;;;-1.27;100.00
50093;BME280;35974;47.752;10.290;2023-04-15T03:00:06;92847.91;;;-1.34;100.00
50093;BME280;35974;47.752;10.290;2023-04-15T03:02:35;92851.13;;;-1.32;100.00
50093;BME280;35974;47.752;10.290;2023-04-15T03:05:02;92854.66;;;-1.33;100.00
50093;BME280;35974;47.752;10.290;2023-04-15T03:07:29;92857.88;;;-1.31;100.00
50093;BME280;35974;47.752;10.290;2023-04-15T03:09:55;92841.84;;;-1.33;100.00
50093;BME280;35974;47.752;10.290;2023-04-15T03:12:22;92853.84;;;-1.34;100.00
50093;BME280;35974;47.752;10.290;2023-04-15T03:14:48;92857.53;;;-1.44;100.00
50093;BME280;35974;47.752;10.290;2023-04-15T03:17:14;92855.59;;;-1.42;100.00
50093;BME280;35974;47.752;10.290;2023-04-15T03:19:57;92854.03;;;-1.27;100.00
50093;BME280;35974;47.752;10.290;2023-04-15T03:22:24;92848.53;;;-1.40;100.00
50093;BME280;35974;47.752;10.290;2023-04-15T03:24:51;92854.97;;;-1.36;100.00
50093;BME280;35974;47.752;10.290;2023-04-15T03:27:17;92849.16;;;-1.47;100.00
50093;BME280;35974;47.752;10.290;2023-04-15T03:29:44;92846.94;;;-1.41;100.00
50093;BME280;35974;47.752;10.290;2023-04-15T03:32:10;92853.06;;;-1.34;100.00
50093;BME280;35974;47.752;10.290;2023-04-15T03:34:37;92845.94;;;-1.49;100.00
50093;BME280;35974;47.752;10.290;2023-04-15T03:37:04;92844.69;;;-1.53;100.00
50093;BME280;35974;47.752;10.290;2023-04-15T03:39:30;92844.31;;;-1.58;100.00
50093;BME280;35974;47.752;10.290;2023-04-15T03:41:57;92845.28;;;-1.59;100.00
50093;BME280;35974;47.752;10.290;2023-04-15T03:44:27;92839.50;;;-1.61;100.00
50093;BME280;35974;47.752;10.290;2023-04-15T03:46:54;92838.53;;;-1.60;100.00
50093;BME280;35974;47.752;10.290;2023-04-15T03:49:20;92840.97;;;-1.58;100.00
50093;BME280;35974;47.752;10.290;2023-04-15T03:51:48;92838.53;;;-1.60;100.00
50093;BME280;35974;47.752;10.290;2023-04-15T03:54:14;92835.34;;;-1.62;100.00
50093;BME280;35974;47.752;10.290;2023-04-15T03:56:41;92836.75;;;-1.68;100.00
50093;BME280;35974;47.752;10.290;2023-04-15T03:59:07;92842.88;;;-1.60;100.00
50093;BME280;35974;47.752;10.290;2023-04-15T04:01:34;92841.09;;;-1.68;100.00
50093;BME280;35974;47.752;10.290;2023-04-15T04:04:00;92837.06;;;-1.71;100.00
50093;BME280;35974;47.752;10.290;2023-04-15T04:06:45;92842.00;;;-1.77;100.00
50093;BME280;35974;47.752;10.290;2023-04-15T04:09:12;92842.97;;;-1.78;100.00
50093;BME280;35974;47.752;10.290;2023-04-15T04:11:38;92844.72;;;-1.79;100.00
50093;BME280;35974;47.752;10.290;2023-04-15T04:14:04;92857.38;;;-1.77;100.00
50093;BME280;35974;47.752;10.290;2023-04-15T04:16:31;92860.09;;;-1.79;100.00
50093;BME280;35974;47.752;10.290;2023-04-15T04:18:57;92861.84;;;-1.88;100.00
50093;BME280;35974;47.752;10.290;2023-04-15T04:21:24;92862.16;;;-1.91;100.00
50093;BME280;35974;47.752;10.290;2023-04-15T04:23:51;92858.59;;;-1.98;100.00
50093;BME280;35974;47.752;10.290;2023-04-15T04:26:18;92866.97;;;-1.88;100.00
50093;BME280;35974;47.752;10.290;2023-04-15T04:28:44;92868.59;;;-1.87;100.00
50093;BME280;35974;47.752;10.290;2023-04-15T04:31:11;92864.09;;;-1.85;100.00
50093;BME280;35974;47.752;10.290;2023-04-15T04:33:37;92865.06;;;-1.86;100.00
50093;BME280;35974;47.752;10.290;2023-04-15T04:36:03;92866.31;;;-1.90;100.00
50093;BME280;35974;47.752;10.290;2023-04-15T04:38:30;92857.31;;;-1.94;100.00
50093;BME280;35974;47.752;10.290;2023-04-15T04:40:57;92860.53;;;-1.92;100.00
50093;BME280;35974;47.752;10.290;2023-04-15T04:43:23;92864.06;;;-1.93;100.00
50093;BME280;35974;47.752;10.290;2023-04-15T04:45:49;92867.56;;;-1.94;100.00
50093;BME280;35974;47.752;10.290;2023-04-15T04:48:16;92862.09;;;-1.99;100.00
50093;BME280;35974;47.752;10.290;2023-04-15T04:50:43;92860.84;;;-1.95;100.00
50093;BME280;35974;47.752;10.290;2023-04-15T04:53:09;92867.28;;;-1.91;100.00
50093;BME280;35974;47.752;10.290;2023-04-15T04:55:36;92863.44;;;-1.95;100.00
50093;BME280;35974;47.752;10.290;2023-04-15T04:58:02;92859.50;;;-2.07;100.00
50093;BME280;35974;47.752;10.290;2023-04-15T05:00:30;92862.25;;;-2.00;100.00
50093;BME280;35974;47.752;10.290;2023-04-15T05:02:57;92870.28;;;-1.95;100.00
50093;BME280;35974;47.752;10.290;2023-04-15T05:05:24;92864.06;;;-1.93;100.00
50093;BME280;35974;47.752;10.290;2023-04-15T05:07:50;92867.56;;;-1.94;100.00
50093;BME280;35974;47.752;10.290;2023-04-15T05:10:16;92873.72;;;-1.87;100.00
50093;BME280;35974;47.752;10.290;2023-04-15T05:12:43;92866.06;;;-1.78;100.00
50093;BME280;35974;47.752;10.290;2023-04-15T05:15:09;92875.72;;;-1.72;100.00
50093;BME280;35974;47.752;10.290;2023-04-15T05:17:36;92877.00;;;-1.68;100.00
50093;BME280;35974;47.752;10.290;2023-04-15T05:20:02;92865.31;;;-1.62;100.00
50093;BME280;35974;47.752;10.290;2023-04-15T05:22:30;92864.88;;;-1.50;100.00
50093;BME280;35974;47.752;10.290;2023-04-15T05:24:56;92870.88;;;-1.33;100.00
50093;BME280;35974;47.752;10.290;2023-04-15T05:27:22;92873.13;;;-1.30;100.00
50093;BME280;35974;47.752;10.290;2023-04-15T05:29:49;92868.19;;;-1.15;100.00
50093;BME280;35974;47.752;10.290;2023-04-15T05:32:16;92869.97;;;-1.07;100.00
50093;BME280;35974;47.752;10.290;2023-04-15T05:34:42;92870.13;;;-1.00;100.00
50093;BME280;35974;47.752;10.290;2023-04-15T05:37:09;92872.06;;;-0.86;100.00
50093;BME280;35974;47.752;10.290;2023-04-15T05:39:35;92874.66;;;-0.78;100.00
50093;BME280;35974;47.752;10.290;2023-04-15T05:42:01;92879.16;;;-0.71;100.00
50093;BME280;35974;47.752;10.290;2023-04-15T05:44:28;92876.59;;;-0.63;100.00
50093;BME280;35974;47.752;10.290;2023-04-15T05:46:55;92877.84;;;-0.59;100.00
50093;BME280;35974;47.752;10.290;2023-04-15T05:49:22;92870.13;;;-0.43;100.00
50093;BME280;35974;47.752;10.290;2023-04-15T05:51:48;92882.03;;;-0.33;100.00
50093;BME280;35974;47.752;10.290;2023-04-15T05:54:14;92878.81;;;-0.19;100.00
50093;BME280;35974;47.752;10.290;2023-04-15T05:56:43;92884.56;;;-0.09;100.00
50093;BME280;35974;47.752;10.290;2023-04-15T05:59:10;92888.22;;;0.13;100.00
50093;BME280;35974;47.752;10.290;2023-04-15T06:01:36;92893.72;;;0.50;100.00
50093;BME280;35974;47.752;10.290;2023-04-15T06:04:03;92894.03;;;0.55;100.00
50093;BME280;35974;47.752;10.290;2023-04-15T06:06:30;92886.94;;;0.65;100.00
50093;BME280;35974;47.752;10.290;2023-04-15T06:08:57;92887.19;;;0.79;100.00
50093;BME280;35974;47.752;10.290;2023-04-15T06:11:23;92888.09;;;0.86;100.00
50093;BME280;35974;47.752;10.290;2023-04-15T06:16:25;92880.81;;;1.21;100.00
50093;BME280;35974;47.752;10.290;2023-04-15T06:18:52;92883.56;;;1.42;100.00
50093;BME280;35974;47.752;10.290;2023-04-15T06:21:18;92881.88;;;1.58;100.00
50093;BME280;35974;47.752;10.290;2023-04-15T06:23:45;92883.09;;;1.62;100.00
50093;BME280;35974;47.752;10.290;2023-04-15T06:26:11;92887.56;;;1.68;100.00
50093;BME280;35974;47.752;10.290;2023-04-15T06:28:38;92880.13;;;1.88;100.00
50093;BME280;35974;47.752;10.290;2023-04-15T06:31:04;92876.50;;;1.97;100.00
50093;BME280;35974;47.752;10.290;2023-04-15T06:33:30;92876.97;;;2.01;100.00
50093;BME280;35974;47.752;10.290;2023-04-15T06:35:58;92875.75;;;2.27;100.00
50093;BME280;35974;47.752;10.290;2023-04-15T06:38:24;92877.34;;;2.28;100.00
50093;BME280;35974;47.752;10.290;2023-04-15T06:40:51;92879.75;;;2.29;100.00
50093;BME280;35974;47.752;10.290;2023-04-15T06:43:17;92873.03;;;2.65;100.00
50093;BME280;35974;47.752;10.290;2023-04-15T06:45:43;92879.19;;;2.64;100.00
50093;BME280;35974;47.752;10.290;2023-04-15T06:48:10;92878.47;;;2.85;100.00
50093;BME280;35974;47.752;10.290;2023-04-15T06:50:36;92877.47;;;3.22;100.00
50093;BME280;35974;47.752;10.290;2023-04-15T06:53:03;92873.81;;;3.32;100.00
50093;BME280;35974;47.752;10.290;2023-04-15T06:55:29;92871.50;;;3.43;100.00
50093;BME280;35974;47.752;10.290;2023-04-15T06:57:56;92883.44;;;3.44;100.00
50093;BME280;35974;47.752;10.290;2023-04-15T07:00:23;92876.81;;;3.57;100.00
50093;BME280;35974;47.752;10.290;2023-04-15T07:02:49;92876.22;;;3.83;100.00
50093;BME280;35974;47.752;10.290;2023-04-15T07:05:16;92884.53;;;3.78;100.00
50093;BME280;35974;47.752;10.290;2023-04-15T07:07:43;92879.91;;;3.95;100.00
50093;BME280;35974;47.752;10.290;2023-04-15T07:10:10;92880.38;;;4.06;100.00
50093;BME280;35974;47.752;10.290;2023-04-15T07:12:37;92872.13;;;4.24;100.00
50093;BME280;35974;47.752;10.290;2023-04-15T07:15:03;92876.22;;;4.39;100.00
50093;BME280;35974;47.752;10.290;2023-04-15T07:17:30;92869.16;;;4.55;100.00
50093;BME280;35974;47.752;10.290;2023-04-15T07:19:57;92870.41;;;4.72;100.00
50093;BME280;35974;47.752;10.290;2023-04-15T07:22:24;92861.31;;;4.90;100.00
50093;BME280;35974;47.752;10.290;2023-04-15T07:24:50;92860.53;;;4.96;100.00
50093;BME280;35974;47.752;10.290;2023-04-15T07:27:16;92861.38;;;5.17;100.00
50093;BME280;35974;47.752;10.290;2023-04-15T07:29:43;92857.66;;;5.39;100.00
50093;BME280;35974;47.752;10.290;2023-04-15T07:32:09;92856.09;;;5.52;100.00
50093;BME280;35974;47.752;10.290;2023-04-15T07:34:36;92857.06;;;5.50;100.00
50093;BME280;35974;47.752;10.290;2023-04-15T07:37:03;92856.72;;;5.80;100.00
50093;BME280;35974;47.752;10.290;2023-04-15T07:39:29;92849.91;;;5.86;100.00
50093;BME280;35974;47.752;10.290;2023-04-15T07:41:56;92857.50;;;5.87;100.00
50093;BME280;35974;47.752;10.290;2023-04-15T07:44:24;92852.72;;;5.98;100.00
50093;BME280;35974;47.752;10.290;2023-04-15T07:46:51;92856.34;;;6.10;100.00
50093;BME280;35974;47.752;10.290;2023-04-15T07:49:18;92858.72;;;6.18;100.00
50093;BME280;35974;47.752;10.290;2023-04-15T07:51:47;92861.09;;;6.27;100.00
50093;BME280;35974;47.752;10.290;2023-04-15T07:54:14;92861.50;;;6.30;100.00
50093;BME280;35974;47.752;10.290;2023-04-15T07:56:40;92863.91;;;6.45;100.00
50093;BME280;35974;47.752;10.290;2023-04-15T07:59:07;92864.50;;;6.34;100.00
50093;BME280;35974;47.752;10.290;2023-04-15T08:01:34;92852.66;;;6.65;99.76
50093;BME280;35974;47.752;10.290;2023-04-15T08:04:02;92849.41;;;6.76;97.97
50093;BME280;35974;47.752;10.290;2023-04-15T08:06:29;92845.81;;;6.70;98.87
50093;BME280;35974;47.752;10.290;2023-04-15T08:08:55;92844.50;;;7.00;97.77
50093;BME280;35974;47.752;10.290;2023-04-15T08:11:22;92843.63;;;7.19;95.07
50093;BME280;35974;47.752;10.290;2023-04-15T08:13:49;92844.69;;;7.05;95.35
50093;BME280;35974;47.752;10.290;2023-04-15T08:18:43;92841.50;;;7.41;94.92
50093;BME280;35974;47.752;10.290;2023-04-15T08:21:10;92845.75;;;7.67;90.96
50093;BME280;35974;47.752;10.290;2023-04-15T08:23:37;92847.09;;;7.45;91.77
50093;BME280;35974;47.752;10.290;2023-04-15T08:26:04;92847.38;;;7.62;92.43
50093;BME280;35974;47.752;10.290;2023-04-15T08:28:30;92851.31;;;7.71;92.99
50093;BME280;35974;47.752;10.290;2023-04-15T08:30:57;92855.09;;;8.00;91.45
50093;BME280;35974;47.752;10.290;2023-04-15T08:33:23;92850.25;;;8.04;92.41
50093;BME280;35974;47.752;10.290;2023-04-15T08:35:49;92854.22;;;8.13;93.51
50093;BME280;35974;47.752;10.290;2023-04-15T08:38:16;92843.28;;;8.23;93.60
50093;BME280;35974;47.752;10.290;2023-04-15T08:40:43;92847.94;;;8.39;91.03
50093;BME280;35974;47.752;10.290;2023-04-15T08:43:20;92843.06;;;8.87;85.72
50093;BME280;35974;47.752;10.290;2023-04-15T08:45:49;92848.59;;;8.78;83.66
50093;BME280;35974;47.752;10.290;2023-04-15T08:48:17;92851.63;;;8.75;85.87
50093;BME280;35974;47.752;10.290;2023-04-15T08:50:44;92855.63;;;8.78;84.04
50093;BME280;35974;47.752;10.290;2023-04-15T08:53:10;92846.81;;;9.09;82.60
50093;BME280;35974;47.752;10.290;2023-04-15T08:55:38;92834.69;;;8.85;80.37
50093;BME280;35974;47.752;10.290;2023-04-15T08:58:07;92832.78;;;9.10;78.58
50093;BME280;35974;47.752;10.290;2023-04-15T09:00:34;92834.47;;;9.35;80.30
50093;BME280;35974;47.752;10.290;2023-04-15T09:03:01;92833.47;;;9.36;79.19
50093;BME280;35974;47.752;10.290;2023-04-15T09:05:29;92840.13;;;9.32;79.69
50093;BME280;35974;47.752;10.290;2023-04-15T09:07:56;92827.59;;;9.52;80.34
50093;BME280;35974;47.752;10.290;2023-04-15T09:10:22;92830.41;;;9.81;80.23
50093;BME280;35974;47.752;10.290;2023-04-15T09:12:49;92837.22;;;9.82;80.32
50093;BME280;35974;47.752;10.290;2023-04-15T09:15:15;92837.03;;;10.19;75.58
50093;BME280;35974;47.752;10.290;2023-04-15T09:17:43;92833.03;;;10.05;78.36
50093;BME280;35974;47.752;10.290;2023-04-15T09:20:10;92835.09;;;10.03;78.55
50093;BME280;35974;47.752;10.290;2023-04-15T09:22:38;92833.28;;;10.15;75.73
50093;BME280;35974;47.752;10.290;2023-04-15T09:30:17;92834.19;;;10.80;73.98
50093;BME280;35974;47.752;10.290;2023-04-15T09:32:59;92829.63;;;11.28;52.20
50093;BME280;35974;47.752;10.290;2023-04-15T09:35:27;92840.09;;;10.87;52.35
50093;BME280;35974;47.752;10.290;2023-04-15T09:38:04;92839.66;;;10.90;52.96
50093;BME280;35974;47.752;10.290;2023-04-15T09:40:31;92836.66;;;10.98;54.59
50093;BME280;35974;47.752;10.290;2023-04-15T09:42:59;92839.66;;;10.90;48.37
50093;BME280;35974;47.752;10.290;2023-04-15T09:45:25;92842.84;;;10.69;48.85
50093;BME280;35974;47.752;10.290;2023-04-15T09:47:55;92847.28;;;10.68;48.66
50093;BME280;35974;47.752;10.290;2023-04-15T09:50:27;92833.06;;;10.76;45.77
50093;BME280;35974;47.752;10.290;2023-04-15T09:52:57;92841.44;;;11.02;47.11
50093;BME280;35974;47.752;10.290;2023-04-15T09:55:24;92845.06;;;11.01;48.66
50093;BME280;35974;47.752;10.290;2023-04-15T09:57:51;92836.41;;;11.12;51.33
50093;BME280;35974;47.752;10.290;2023-04-15T10:00:17;92835.25;;;11.08;46.26
50093;BME280;35974;47.752;10.290;2023-04-15T10:02:43;92839.28;;;11.27;44.78
50093;BME280;35974;47.752;10.290;2023-04-15T10:05:13;92836.59;;;11.22;45.02
50093;BME280;35974;47.752;10.290;2023-04-15T10:07:40;92840.91;;;11.28;46.88
50093;BME280;35974;47.752;10.290;2023-04-15T10:10:08;92846.19;;;11.05;42.94
50093;BME280;35974;47.752;10.290;2023-04-15T10:12:36;92841.22;;;10.91;44.98
50093;BME280;35974;47.752;10.290;2023-04-15T10:15:03;92846.16;;;10.64;46.92
50093;BME280;35974;47.752;10.290;2023-04-15T10:17:31;92842.81;;;10.21;43.73
50093;BME280;35974;47.752;10.290;2023-04-15T10:20:02;92849.78;;;10.27;45.42
50093;BME280;35974;47.752;10.290;2023-04-15T10:22:30;92852.41;;;10.75;44.66
50093;BME280;35974;47.752;10.290;2023-04-15T10:24:57;92856.19;;;11.08;44.75
50093;BME280;35974;47.752;10.290;2023-04-15T10:27:25;92847.25;;;11.04;42.08
50093;BME280;35974;47.752;10.290;2023-04-15T10:29:51;92847.06;;;11.22;42.45
50093;BME280;35974;47.752;10.290;2023-04-15T10:32:19;92852.88;;;11.53;41.28
50093;BME280;35974;47.752;10.290;2023-04-15T10:34:46;92852.94;;;11.41;41.73
50093;BME280;35974;47.752;10.290;2023-04-15T10:37:19;92851.41;;;11.45;41.91
50093;BME280;35974;47.752;10.290;2023-04-15T10:39:46;92858.09;;;11.53;41.59
50093;BME280;35974;47.752;10.290;2023-04-15T10:42:16;92854.34;;;11.20;42.12
50093;BME280;35974;47.752;10.290;2023-04-15T10:44:47;92852.88;;;11.53;43.68
50093;BME280;35974;47.752;10.290;2023-04-15T10:47:14;92849.19;;;11.95;40.75
50093;BME280;35974;47.752;10.290;2023-04-15T10:50:05;92856.13;;;11.89;41.78
50093;BME280;35974;47.752;10.290;2023-04-15T10:52:30;92875.78;;;11.75;41.61
50093;BME280;35974;47.752;10.290;2023-04-15T10:55:11;92862.06;;;11.96;40.47
50093;BME280;35974;47.752;10.290;2023-04-15T10:57:38;92875.13;;;10.86;41.69
50093;BME280;35974;47.752;10.290;2023-04-15T11:05:04;92868.03;;;11.80;44.94
50093;BME280;35974;47.752;10.290;2023-04-15T11:10:00;92866.97;;;11.93;44.31
50093;BME280;35974;47.752;10.290;2023-04-15T11:12:34;92880.03;;;12.38;42.22
50093;BME280;35974;47.752;10.290;2023-04-15T11:17:47;92877.84;;;11.72;43.31
50093;BME280;35974;47.752;10.290;2023-04-15T11:20:14;92883.09;;;11.72;44.36
50093;BME280;35974;47.752;10.290;2023-04-15T11:22:46;92877.28;;;11.70;43.58
50093;BME280;35974;47.752;10.290;2023-04-15T11:25:21;92889.50;;;11.24;42.29
50093;BME280;35974;47.752;10.290;2023-04-15T11:27:47;92883.25;;;11.25;44.01
50093;BME280;35974;47.752;10.290;2023-04-15T11:30:33;92886.25;;;11.17;44.96
50093;BME280;35974;47.752;10.290;2023-04-15T11:33:02;92887.88;;;11.76;45.25
50093;BME280;35974;47.752;10.290;2023-04-15T11:35:28;92888.38;;;11.89;44.03
50093;BME280;35974;47.752;10.290;2023-04-15T11:37:55;92881.53;;;11.71;42.68
50093;BME280;35974;47.752;10.290;2023-04-15T11:40:22;92875.41;;;12.12;40.25
50093;BME280;35974;47.752;10.290;2023-04-15T11:45:37;92885.72;;;12.01;44.46
50093;BME280;35974;47.752;10.290;2023-04-15T11:48:12;92894.88;;;11.87;43.91
50093;BME280;35974;47.752;10.290;2023-04-15T11:50:39;92896.31;;;11.37;41.32
50093;BME280;35974;47.752;10.290;2023-04-15T11:53:07;92894.59;;;11.43;42.34
50093;BME280;35974;47.752;10.290;2023-04-15T11:55:45;92892.94;;;11.25;41.94
50093;BME280;35974;47.752;10.290;2023-04-15T12:00:45;92893.22;;;11.52;41.09
50093;BME280;35974;47.752;10.290;2023-04-15T12:03:17;92887.97;;;12.09;41.87
50093;BME280;35974;47.752;10.290;2023-04-15T12:11:17;92905.22;;;12.39;39.24
50093;BME280;35974;47.752;10.290;2023-04-15T12:13:48;92903.72;;;12.43;41.52
50093;BME280;35974;47.752;10.290;2023-04-15T12:16:18;92901.81;;;12.22;41.75
50093;BME280;35974;47.752;10.290;2023-04-15T12:19:06;92906.38;;;11.98;41.35
50093;BME280;35974;47.752;10.290;2023-04-15T12:21:35;92905.94;;;12.35;39.38
50093;BME280;35974;47.752;10.290;2023-04-15T12:24:03;92909.44;;;12.40;40.03
50093;BME280;35974;47.752;10.290;2023-04-15T12:26:32;92907.03;;;12.56;39.35
50093;BME280;35974;47.752;10.290;2023-04-15T12:29:03;92908.47;;;12.13;43.07
50093;BME280;35974;47.752;10.290;2023-04-15T12:31:30;92902.44;;;12.46;40.25
50093;BME280;35974;47.752;10.290;2023-04-15T12:33:57;92910.38;;;12.34;40.50
50093;BME280;35974;47.752;10.290;2023-04-15T12:36:23;92914.81;;;12.17;40.82
50093;BME280;35974;47.752;10.290;2023-04-15T12:38:50;92920.72;;;12.24;42.69
50093;BME280;35974;47.752;10.290;2023-04-15T12:41:17;92921.50;;;12.07;40.03
50093;BME280;35974;47.752;10.290;2023-04-15T12:43:44;92920.25;;;12.27;45.49
50093;BME280;35974;47.752;10.290;2023-04-15T12:46:14;92918.81;;;12.70;39.79
50093;BME280;35974;47.752;10.290;2023-04-15T12:48:41;92910.84;;;12.65;38.83
50093;BME280;35974;47.752;10.290;2023-04-15T12:51:07;92912.84;;;12.75;35.96
50093;BME280;35974;47.752;10.290;2023-04-15T12:53:34;92928.50;;;12.70;37.28
50093;BME280;35974;47.752;10.290;2023-04-15T12:56:00;92932.22;;;13.30;39.76
50093;BME280;35974;47.752;10.290;2023-04-15T12:58:26;92923.41;;;12.97;40.07
50093;BME280;35974;47.752;10.290;2023-04-15T13:00:53;92920.81;;;12.63;38.50
50093;BME280;35974;47.752;10.290;2023-04-15T13:03:19;92927.22;;;12.04;41.29
50093;BME280;35974;47.752;10.290;2023-04-15T13:05:46;92929.16;;;11.68;41.25
50093;BME280;35974;47.752;10.290;2023-04-15T13:08:12;92936.59;;;10.95;40.67
50093;BME280;35974;47.752;10.290;2023-04-15T13:10:39;92946.78;;;11.32;40.94
50093;BME280;35974;47.752;10.290;2023-04-15T13:13:07;92946.31;;;11.35;41.87
50093;BME280;35974;47.752;10.290;2023-04-15T13:15:33;92966.94;;;10.96;45.18
50093;BME280;35974;47.752;10.290;2023-04-15T13:18:00;92972.88;;;10.68;51.50
50093;BME280;35974;47.752;10.290;2023-04-15T13:20:26;92982.06;;;9.86;53.78
50093;BME280;35974;47.752;10.290;2023-04-15T13:22:53;92979.78;;;9.41;58.43
50093;BME280;35974;47.752;10.290;2023-04-15T13:25:19;92982.44;;;8.79;60.60